sensor_id;sensor_type;location;lat;lon;timestamp;pressure;altitude;pressure_sealevel;temperature;humidity
10897;BME280;5501;51.176;6.470;2023-01-16T10:30:16;97696.00;;;6.36;94.73
10897;BME280;5501;51.176;6.470;2023-01-16T10:35:35;97693.31;;;6.22;94.33
10897;BME280;5501;51.176;6.470;2023-01-16T10:40:40;97678.59;;;6.48;93.65
10897;BME280;5501;51.176;6.470;2023-01-16T10:45:43;97657.09;;;6.40;92.87
10897;BME280;5501;51.176;6.470;2023-01-16T10:51:05;97653.25;;;6.45;93.49
10897;BME280;5501;51.176;6.470;2023-01-16T10:56:08;97638.91;;;6.49;91.88
10897;BME280;5501;51.176;6.470;2023-01-16T11:01:17;97623.34;;;6.59;91.96
10897;BME280;5501;51.176;6.470;2023-01-16T11:06:27;97611.00;;;6.73;91.66
10897;BME280;5501;51.176;6.470;2023-01-16T11:11:33;97600.19;;;6.64;91.20
10897;BME280;5501;51.176;6.470;2023-01-16T11:16:54;97595.91;;;6.75;91.28
10897;BME280;5501;51.176;6.470;2023-01-16T11:22:20;97576.84;;;6.84;90.29
10897;BME280;5501;51.176;6.470;2023-01-16T11:27:23;97560.81;;;6.87;90.16
10897;BME280;5501;51.176;6.470;2023-01-16T11:32:26;97543.59;;;7.08;89.45
10897;BME280;5501;51.176;6.470;2023-01-16T11:37:30;97542.66;;;7.09;88.95
10897;BME280;5501;51.176;6.470;2023-01-16T11:42:32;97530.13;;;7.13;88.97
10897;BME280;5501;51.176;6.470;2023-01-16T11:47:53;97520.06;;;6.91;90.86
10897;BME280;5501;51.176;6.470;2023-01-16T11:52:55;97503.72;;;6.99;94.39
10897;BME280;5501;51.176;6.470;2023-01-16T12:08:56;97462.34;;;6.85;95.46
10897;BME280;5501;51.176;6.470;2023-01-16T12:25:08;97426.78;;;6.64;98.00
10897;BME280;5501;51.176;6.470;2023-01-16T12:30:24;97410.34;;;6.73;97.49
10897;BME280;5501;51.176;6.470;2023-01-16T12:41:05;97381.09;;;6.50;100.00
10897;BME280;5501;51.176;6.470;2023-01-16T12:46:50;97368.16;;;6.33;100.00
10897;BME280;5501;51.176;6.470;2023-01-16T12:57:36;97336.25;;;6.23;100.00
10897;BME280;5501;51.176;6.470;2023-01-16T13:07:56;97324.88;;;6.23;100.00
10897;BME280;5501;51.176;6.470;2023-01-16T13:13:01;97324.38;;;6.43;100.00
10897;BME280;5501;51.176;6.470;2023-01-16T13:18:38;97311.44;;;6.52;100.00
10897;BME280;5501;51.176;6.470;2023-01-16T13:23:48;97301.69;;;6.40;100.00
10897;BME280;5501;51.176;6.470;2023-01-16T13:29:14;97299.41;;;6.48;100.00
10897;BME280;5501;51.176;6.470;2023-01-16T13:34:31;97286.47;;;6.31;100.00
10897;BME280;5501;51.176;6.470;2023-01-16T13:40:02;97280.56;;;6.28;100.00
10897;BME280;5501;51.176;6.470;2023-01-16T13:45:18;97271.75;;;6.41;100.00
10897;BME280;5501;51.176;6.470;2023-01-16T13:50:48;97270.84;;;6.28;100.00
10897;BME280;5501;51.176;6.470;2023-01-16T13:56:03;97263.69;;;6.30;100.00
10897;BME280;5501;51.176;6.470;2023-01-16T14:06:43;97241.72;;;6.30;100.00
10897;BME280;5501;51.176;6.470;2023-01-16T14:12:01;97233.03;;;6.15;100.00
10897;BME280;5501;51.176;6.470;2023-01-16T14:17:20;97224.47;;;6.12;100.00
10897;BME280;5501;51.176;6.470;2023-01-16T14:22:24;97228.63;;;6.28;100.00
10897;BME280;5501;51.176;6.470;2023-01-16T14:27:34;97223.34;;;6.28;100.00
10897;BME280;5501;51.176;6.470;2023-01-16T14:32:45;97224.81;;;6.20;100.00
10897;BME280;5501;51.176;6.470;2023-01-16T14:37:57;97217.81;;;6.06;100.00
10897;BME280;5501;51.176;6.470;2023-01-16T14:43:01;97225.66;;;6.20;100.00
10897;BME280;5501;51.176;6.470;2023-01-16T14:53:43;97216.91;;;6.32;100.00
10897;BME280;5501;51.176;6.470;2023-01-16T14:59:07;97215.09;;;6.20;100.00
10897;BME280;5501;51.176;6.470;2023-01-16T15:04:14;97206.88;;;6.25;100.00
10897;BME280;5501;51.176;6.470;2023-01-16T15:09:18;97195.22;;;6.41;100.00
10897;BME280;5501;51.176;6.470;2023-01-16T15:14:21;97189.63;;;6.33;100.00
10897;BME280;5501;51.176;6.470;2023-01-16T15:19:36;97189.56;;;6.21;100.00
10897;BME280;5501;51.176;6.470;2023-01-16T15:25:05;97193.19;;;6.32;100.00
10897;BME280;5501;51.176;6.470;2023-01-16T15:30:15;97183.38;;;6.34;100.00
10897;BME280;5501;51.176;6.470;2023-01-16T15:35:21;97187.47;;;6.26;100.00
10897;BME280;5501;51.176;6.470;2023-01-16T15:40:26;97185.06;;;6.23;100.00
10897;BME280;5501;51.176;6.470;2023-01-16T15:45:28;97173.50;;;6.11;100.00
10897;BME280;5501;51.176;6.470;2023-01-16T15:51:09;97164.25;;;6.18;100.00
10897;BME280;5501;51.176;6.470;2023-01-16T15:56:30;97176.38;;;6.08;100.00
10897;BME280;5501;51.176;6.470;2023-01-16T16:01:34;97161.00;;;6.27;100.00
10897;BME280;5501;51.176;6.470;2023-01-16T16:06:36;97160.84;;;6.16;100.00
10897;BME280;5501;51.176;6.470;2023-01-16T16:11:39;97165.13;;;6.19;100.00
10897;BME280;5501;51.176;6.470;2023-01-16T16:17:03;97166.41;;;6.38;100.00
10897;BME280;5501;51.176;6.470;2023-01-16T16:22:23;97173.78;;;6.46;100.00
10897;BME280;5501;51.176;6.470;2023-01-16T16:27:43;97175.06;;;6.53;100.00
10897;BME280;5501;51.176;6.470;2023-01-16T16:32:45;97175.94;;;6.53;100.00
10897;BME280;5501;51.176;6.470;2023-01-16T16:37:47;97183.84;;;6.53;100.00
10897;BME280;5501;51.176;6.470;2023-01-16T16:42:51;97179.91;;;6.46;100.00
10897;BME280;5501;51.176;6.470;2023-01-16T16:48:22;97173.59;;;6.49;100.00
10897;BME280;5501;51.176;6.470;2023-01-16T16:53:26;97177.50;;;6.56;100.00
10897;BME280;5501;51.176;6.470;2023-01-16T16:58:27;97175.69;;;6.56;100.00
10897;BME280;5501;51.176;6.470;2023-01-16T17:03:30;97182.03;;;6.41;100.00
10897;BME280;5501;51.176;6.470;2023-01-16T17:08:32;97195.75;;;6.46;100.00
10897;BME280;5501;51.176;6.470;2023-01-16T17:13:33;97200.41;;;6.55;100.00
10897;BME280;5501;51.176;6.470;2023-01-16T17:18:35;97197.03;;;6.53;100.00
10897;BME280;5501;51.176;6.470;2023-01-16T17:23:37;97198.91;;;6.51;100.00
10897;BME280;5501;51.176;6.470;2023-01-16T17:28:39;97204.81;;;6.55;100.00
10897;BME280;5501;51.176;6.470;2023-01-16T17:33:40;97207.88;;;6.49;100.00
10897;BME280;5501;51.176;6.470;2023-01-16T17:38:42;97203.34;;;6.38;100.00
10897;BME280;5501;51.176;6.470;2023-01-16T17:43:43;97202.81;;;6.46;100.00
10897;BME280;5501;51.176;6.470;2023-01-16T17:49:03;97207.38;;;6.56;100.00
10897;BME280;5501;51.176;6.470;2023-01-16T17:54:05;97215.72;;;6.50;100.00
10897;BME280;5501;51.176;6.470;2023-01-16T17:59:06;97202.72;;;6.47;100.00
10897;BME280;5501;51.176;6.470;2023-01-16T18:04:10;97219.59;;;6.45;100.00
10897;BME280;5501;51.176;6.470;2023-01-16T18:09:12;97217.28;;;6.53;100.00
10897;BME280;5501;51.176;6.470;2023-01-16T18:14:16;97230.19;;;6.57;100.00
10897;BME280;5501;51.176;6.470;2023-01-16T18:19:36;97226.25;;;6.50;100.00
10897;BME280;5501;51.176;6.470;2023-01-16T18:24:42;97227.41;;;6.46;100.00
10897;BME280;5501;51.176;6.470;2023-01-16T18:29:44;97234.38;;;6.47;100.00
10897;BME280;5501;51.176;6.470;2023-01-16T18:34:51;97249.25;;;6.48;100.00
10897;BME280;5501;51.176;6.470;2023-01-16T18:40:05;97256.13;;;6.51;100.00
10897;BME280;5501;51.176;6.470;2023-01-16T18:45:26;97264.53;;;6.31;100.00
10897;BME280;5501;51.176;6.470;2023-01-16T18:50:47;97281.53;;;6.39;100.00
10897;BME280;5501;51.176;6.470;2023-01-16T18:56:14;97276.16;;;6.41;100.00
10897;BME280;5501;51.176;6.470;2023-01-16T19:01:36;97287.41;;;6.04;100.00
10897;BME280;5501;51.176;6.470;2023-01-16T19:06:58;97293.94;;;5.98;100.00
10897;BME280;5501;51.176;6.470;2023-01-16T19:12:01;97306.38;;;5.96;100.00
10897;BME280;5501;51.176;6.470;2023-01-16T19:17:06;97312.97;;;5.89;100.00
10897;BME280;5501;51.176;6.470;2023-01-16T19:22:08;97334.03;;;5.75;100.00
10897;BME280;5501;51.176;6.470;2023-01-16T19:27:10;97347.81;;;5.52;100.00
10897;BME280;5501;51.176;6.470;2023-01-16T19:32:11;97353.06;;;5.24;100.00
10897;BME280;5501;51.176;6.470;2023-01-16T19:37:13;97367.97;;;5.09;100.00
10897;BME280;5501;51.176;6.470;2023-01-16T19:42:14;97382.94;;;5.09;100.00
10897;BME280;5501;51.176;6.470;2023-01-16T19:47:34;97400.38;;;4.96;100.00
10897;BME280;5501;51.176;6.470;2023-01-16T19:52:35;97389.19;;;4.92;100.00
10897;BME280;5501;51.176;6.470;2023-01-16T19:57:37;97415.69;;;5.19;100.00
10897;BME280;5501;51.176;6.470;2023-01-16T20:02:38;97406.69;;;4.93;100.00
10897;BME280;5501;51.176;6.470;2023-01-16T20:07:40;97416.75;;;5.01;100.00
10897;BME280;5501;51.176;6.470;2023-01-16T20:12:41;97440.84;;;5.09;100.00
10897;BME280;5501;51.176;6.470;2023-01-16T20:17:44;97445.09;;;5.11;100.00
10897;BME280;5501;51.176;6.470;2023-01-16T20:22:45;97450.28;;;5.13;100.00
10897;BME280;5501;51.176;6.470;2023-01-16T20:27:47;97463.59;;;5.10;100.00
10897;BME280;5501;51.176;6.470;2023-01-16T20:32:49;97483.56;;;5.14;100.00
10897;BME280;5501;51.176;6.470;2023-01-16T20:37:50;97480.69;;;5.32;100.00
10897;BME280;5501;51.176;6.470;2023-01-16T20:42:51;97489.63;;;5.30;100.00
10897;BME280;5501;51.176;6.470;2023-01-16T20:48:11;97500.00;;;5.33;100.00
10897;BME280;5501;51.176;6.470;2023-01-16T20:53:13;97510.25;;;5.08;100.00
10897;BME280;5501;51.176;6.470;2023-01-16T20:58:15;97515.56;;;5.22;100.00
10897;BME280;5501;51.176;6.470;2023-01-16T21:03:16;97525.94;;;5.25;100.00
10897;BME280;5501;51.176;6.470;2023-01-16T21:08:19;97538.78;;;5.15;100.00
10897;BME280;5501;51.176;6.470;2023-01-16T21:13:21;97544.03;;;5.31;100.00
10897;BME280;5501;51.176;6.470;2023-01-16T21:18:41;97566.97;;;5.29;100.00
10897;BME280;5501;51.176;6.470;2023-01-16T21:24:03;97574.97;;;5.12;100.00
10897;BME280;5501;51.176;6.470;2023-01-16T21:29:06;97577.53;;;5.13;100.00
10897;BME280;5501;51.176;6.470;2023-01-16T21:34:07;97579.56;;;5.24;100.00
10897;BME280;5501;51.176;6.470;2023-01-16T21:39:09;97590.91;;;5.24;100.00
10897;BME280;5501;51.176;6.470;2023-01-16T21:44:11;97593.47;;;5.26;100.00
10897;BME280;5501;51.176;6.470;2023-01-16T21:49:31;97625.94;;;5.26;100.00
10897;BME280;5501;51.176;6.470;2023-01-16T21:54:33;97624.41;;;5.38;100.00
10897;BME280;5501;51.176;6.470;2023-01-16T21:59:34;97629.53;;;5.25;100.00
10897;BME280;5501;51.176;6.470;2023-01-16T22:04:36;97638.16;;;5.27;100.00
10897;BME280;5501;51.176;6.470;2023-01-16T22:09:37;97650.66;;;5.24;100.00
10897;BME280;5501;51.176;6.470;2023-01-16T22:14:38;97656.38;;;5.32;100.00
10897;BME280;5501;51.176;6.470;2023-01-16T22:19:59;97665.69;;;5.22;100.00
10897;BME280;5501;51.176;6.470;2023-01-16T22:25:21;97666.56;;;5.22;100.00
10897;BME280;5501;51.176;6.470;2023-01-16T22:30:23;97678.00;;;5.06;100.00
10897;BME280;5501;51.176;6.470;2023-01-16T22:35:27;97688.66;;;5.20;100.00
10897;BME280;5501;51.176;6.470;2023-01-16T22:40:29;97683.97;;;5.25;100.00
10897;BME280;5501;51.176;6.470;2023-01-16T22:45:30;97694.56;;;5.08;100.00
10897;BME280;5501;51.176;6.470;2023-01-16T22:50:50;97700.16;;;5.02;100.00
10897;BME280;5501;51.176;6.470;2023-01-16T22:55:53;97697.28;;;5.06;100.00
10897;BME280;5501;51.176;6.470;2023-01-16T23:00:55;97717.69;;;5.03;100.00
10897;BME280;5501;51.176;6.470;2023-01-16T23:05:56;97710.88;;;4.99;100.00
10897;BME280;5501;51.176;6.470;2023-01-16T23:11:20;97711.63;;;5.01;100.00
10897;BME280;5501;51.176;6.470;2023-01-16T23:16:22;97730.78;;;5.04;100.00
10897;BME280;5501;51.176;6.470;2023-01-16T23:21:23;97739.69;;;4.85;100.00
10897;BME280;5501;51.176;6.470;2023-01-16T23:26:25;97754.28;;;4.75;100.00
10897;BME280;5501;51.176;6.470;2023-01-16T23:31:27;97766.03;;;4.68;100.00
10897;BME280;5501;51.176;6.470;2023-01-16T23:36:29;97771.28;;;4.85;100.00
10897;BME280;5501;51.176;6.470;2023-01-16T23:41:31;97768.38;;;4.74;100.00
10897;BME280;5501;51.176;6.470;2023-01-16T23:46:52;97784.94;;;4.59;100.00
10897;BME280;5501;51.176;6.470;2023-01-16T23:51:53;97792.56;;;4.29;100.00
10897;BME280;5501;51.176;6.470;2023-01-16T23:56:54;97805.19;;;4.40;100.00
